createdAt,value
2022-08-04T00:02:08.333Z,6.50
2022-08-04T00:05:03.718Z,7.55
2022-08-04T00:07:42.514Z,6.88
2022-08-04T00:10:17.214Z,7.05
2022-08-04T00:12:49.971Z,6.82
2022-08-04T00:15:17.911Z,6.65
2022-08-04T00:18:04.770Z,6.70
2022-08-04T00:20:34.657Z,6.78
2022-08-04T00:23:02.550Z,7.00
2022-08-04T00:25:29.605Z,6.90
2022-08-04T00:27:56.975Z,6.95
2022-08-04T00:30:24.854Z,6.60
2022-08-04T00:32:52.330Z,6.60
2022-08-04T00:35:19.560Z,6.95
2022-08-04T00:37:47.487Z,6.57
2022-08-04T00:40:42.072Z,7.10
2022-08-04T00:43:21.575Z,6.80
2022-08-04T00:46:18.051Z,7.15
2022-08-04T00:49:06.659Z,6.68
2022-08-04T00:51:48.481Z,6.60
2022-08-04T00:54:47.149Z,7.47
2022-08-04T00:57:34.477Z,7.35
2022-08-04T01:00:01.667Z,6.97
2022-08-04T01:02:48.418Z,7.05
2022-08-04T01:05:28.885Z,6.97
2022-08-04T01:08:32.431Z,6.93
2022-08-04T01:11:09.547Z,6.80
2022-08-04T01:14:13.395Z,7.28
2022-08-04T01:17:02.226Z,6.70
2022-08-04T01:19:29.028Z,7.80
2022-08-04T01:22:13.115Z,7.53
2022-08-04T01:25:17.861Z,7.15
2022-08-04T01:28:24.589Z,6.93
2022-08-04T01:30:58.346Z,7.75
2022-08-04T01:33:30.334Z,7.55
2022-08-04T01:36:04.930Z,7.45
2022-08-04T01:38:36.974Z,7.10
2022-08-04T01:41:07.753Z,7.13
2022-08-04T01:43:40.550Z,7.57
2022-08-04T01:46:11.105Z,7.45
2022-08-04T01:48:39.672Z,7.72
2022-08-04T01:51:08.773Z,7.47
2022-08-04T01:53:38.924Z,8.40
2022-08-04T01:56:09.830Z,7.63
2022-08-04T01:58:39.500Z,8.05
2022-08-04T02:01:09.248Z,7.97
2022-08-04T02:04:18.192Z,7.88
2022-08-04T02:06:38.173Z,7.60
2022-08-04T02:09:07.873Z,7.72
2022-08-04T02:11:34.825Z,8.57
2022-08-04T02:14:40.456Z,8.98
2022-08-04T02:17:30.367Z,8.50
2022-08-04T02:20:19.572Z,8.95
2022-08-04T02:22:56.932Z,8.27
2022-08-04T02:25:26.393Z,9.18
2022-08-04T02:28:17.239Z,8.90
2022-08-04T02:30:55.957Z,8.40
2022-08-04T02:33:31.402Z,8.13
2022-08-04T02:36:03.483Z,9.10
2022-08-04T02:38:43.046Z,9.43
2022-08-04T02:41:11.121Z,9.23
2022-08-04T02:43:52.105Z,9.02
2022-08-04T02:46:21.172Z,9.35
2022-08-04T02:48:50.027Z,8.88
2022-08-04T02:51:20.100Z,9.30
2022-08-04T02:53:49.954Z,9.63
2022-08-04T02:56:20.323Z,8.65
2022-08-04T02:58:52.914Z,9.25
2022-08-04T03:01:22.151Z,9.70
2022-08-04T03:04:24.561Z,9.65
2022-08-04T03:07:20.102Z,9.40
2022-08-04T03:10:32.107Z,8.73
2022-08-04T03:13:24.245Z,10.23
2022-08-04T03:18:55.887Z,9.43
2022-08-04T03:24:34.306Z,9.88
2022-08-04T03:27:19.651Z,10.38
2022-08-04T03:30:00.965Z,10.38
2022-08-04T03:32:52.429Z,10.57
2022-08-04T03:35:40.505Z,9.73
2022-08-04T03:38:29.403Z,9.23
2022-08-04T03:41:51.848Z,10.23
2022-08-04T03:44:57.310Z,10.10
2022-08-04T03:47:57.760Z,10.43
2022-08-04T03:50:41.621Z,9.90
2022-08-04T03:53:33.533Z,9.82
2022-08-04T03:56:09.244Z,9.80
2022-08-04T03:59:10.149Z,10.68
2022-08-04T04:02:01.211Z,10.02
2022-08-04T04:05:12.375Z,9.52
2022-08-04T04:10:51.635Z,9.48
2022-08-04T04:13:26.798Z,10.27
2022-08-04T04:16:13.699Z,10.32
2022-08-04T04:19:01.920Z,10.25
2022-08-04T04:21:55.594Z,10.10
2022-08-04T04:24:34.677Z,9.45
2022-08-04T04:27:17.953Z,9.88
2022-08-04T04:30:03.385Z,8.75
2022-08-04T04:32:58.982Z,7.63
2022-08-04T04:35:34.596Z,8.10
2022-08-04T04:38:01.499Z,7.55
2022-08-04T04:41:00.336Z,7.20
2022-08-04T04:44:03.261Z,7.05
2022-08-04T04:46:43.672Z,6.10
2022-08-04T04:49:32.178Z,6.03
2022-08-04T04:52:57.398Z,6.18
2022-08-04T04:55:31.520Z,6.38
2022-08-04T04:58:00.552Z,6.68
2022-08-04T05:01:04.594Z,6.88
2022-08-04T05:03:49.365Z,6.25
2022-08-04T05:06:36.378Z,6.25
2022-08-04T05:09:06.107Z,5.75
2022-08-04T05:11:59.578Z,5.70
2022-08-04T05:14:41.594Z,6.18
2022-08-04T05:17:28.259Z,7.10
2022-08-04T05:19:57.870Z,6.78
2022-08-04T05:22:35.442Z,6.45
2022-08-04T05:25:22.703Z,7.57
2022-08-04T05:27:56.600Z,6.78
2022-08-04T05:30:26.038Z,7.70
2022-08-04T05:33:11.885Z,6.40
2022-08-04T05:36:08.919Z,6.80
2022-08-04T05:38:37.748Z,7.15
2022-08-04T05:41:06.625Z,6.75
2022-08-04T05:43:34.758Z,6.28
2022-08-04T05:46:02.968Z,5.28
2022-08-04T05:48:32.877Z,5.80
2022-08-04T05:51:01.788Z,5.25
2022-08-04T05:53:29.410Z,4.82
2022-08-04T05:55:59.708Z,4.57
2022-08-04T05:58:30.583Z,4.47
2022-08-04T06:01:02.046Z,4.88
2022-08-04T06:03:30.839Z,4.78
2022-08-04T06:05:58.804Z,4.72
2022-08-04T06:08:26.069Z,5.10
2022-08-04T06:10:56.112Z,4.47
2022-08-04T06:13:49.608Z,4.57
2022-08-04T06:16:30.069Z,4.18
2022-08-04T06:20:02.379Z,4.30
2022-08-04T06:21:54.114Z,3.95
2022-08-04T06:24:24.978Z,4.10
2022-08-04T06:26:52.798Z,3.93
2022-08-04T06:29:27.004Z,4.47
2022-08-04T06:32:30.769Z,4.10
2022-08-04T06:34:47.642Z,4.30
2022-08-04T06:37:41.223Z,4.88
2022-08-04T06:40:29.439Z,4.50
2022-08-04T06:42:53.162Z,3.88
2022-08-04T06:45:20.787Z,4.50
2022-08-04T06:47:48.833Z,4.28
2022-08-04T06:51:32.065Z,4.50
2022-08-04T06:53:04.559Z,3.92
2022-08-04T06:55:33.535Z,3.65
2022-08-04T06:58:03.351Z,3.70
2022-08-04T07:00:32.666Z,3.85
2022-08-04T07:02:59.984Z,3.58
2022-08-04T07:05:26.949Z,3.78
2022-08-04T07:07:56.782Z,3.65
2022-08-04T07:10:25.269Z,3.67
2022-08-04T07:12:53.016Z,3.47
2022-08-04T07:15:21.415Z,3.60
2022-08-04T07:17:52.099Z,3.80
2022-08-04T07:20:33.898Z,3.65
2022-08-04T07:23:06.523Z,3.65
2022-08-04T07:26:01.063Z,4.72
2022-08-04T07:28:26.900Z,3.78
2022-08-04T07:30:55.466Z,3.88
2022-08-04T07:33:23.345Z,3.67
2022-08-04T07:36:04.592Z,3.70
2022-08-04T07:38:48.326Z,3.63
2022-08-04T07:41:40.673Z,3.70
2022-08-04T07:44:09.016Z,3.47
2022-08-04T07:46:39.177Z,3.58
2022-08-04T07:49:06.532Z,3.60
2022-08-04T07:51:35.870Z,3.95
2022-08-04T07:54:05.240Z,3.60
2022-08-04T07:56:35.460Z,3.80
2022-08-04T07:59:03.452Z,4.03
2022-08-04T08:01:31.293Z,3.72
2022-08-04T08:04:00.665Z,3.63
2022-08-04T08:06:33.118Z,4.15
2022-08-04T08:09:02.327Z,4.20
2022-08-04T08:12:35.189Z,4.28
2022-08-04T08:14:36.656Z,3.50
2022-08-04T08:17:06.494Z,3.83
2022-08-04T08:19:34.855Z,4.47
2022-08-04T08:22:02.929Z,4.03
2022-08-04T08:24:31.534Z,4.50
2022-08-04T08:27:00.573Z,4.72
2022-08-04T08:29:29.560Z,4.20
2022-08-04T08:32:01.384Z,5.00
2022-08-04T08:34:33.302Z,4.80
2022-08-04T08:37:23.313Z,4.55
2022-08-04T08:40:10.882Z,4.60
2022-08-04T08:42:52.963Z,4.63
2022-08-04T08:45:50.579Z,4.60
2022-08-04T08:48:48.056Z,5.28
2022-08-04T08:51:17.575Z,4.82
2022-08-04T08:54:05.445Z,4.70
2022-08-04T08:56:58.269Z,4.90
2022-08-04T08:59:27.824Z,5.05
2022-08-04T09:02:19.397Z,5.57
2022-08-04T09:05:14.891Z,5.05
2022-08-04T09:08:18.620Z,5.10
2022-08-04T09:10:53.838Z,5.30
2022-08-04T09:13:21.290Z,5.57
2022-08-04T09:16:08.906Z,5.72
2022-08-04T09:19:07.331Z,5.88
2022-08-04T09:21:41.922Z,5.38
2022-08-04T09:24:35.518Z,5.38
2022-08-04T09:27:05.662Z,5.82
2022-08-04T09:29:51.640Z,5.93
2022-08-04T09:32:28.227Z,5.80
2022-08-04T09:35:15.341Z,5.78
2022-08-04T09:38:03.841Z,6.53
2022-08-04T09:40:55.316Z,7.20
2022-08-04T09:44:42.962Z,7.03
2022-08-04T09:46:55.955Z,7.03
2022-08-04T09:49:31.576Z,7.20
2022-08-04T09:52:03.308Z,6.57
2022-08-04T09:54:54.385Z,7.38
2022-08-04T09:57:52.417Z,6.85
2022-08-04T10:00:20.903Z,6.95
2022-08-04T10:03:15.966Z,6.43
2022-08-04T10:06:11.086Z,6.80
2022-08-04T10:11:54.734Z,6.97
2022-08-04T10:14:53.116Z,7.07
2022-08-04T10:17:33.012Z,6.95
2022-08-04T10:20:50.839Z,7.15
2022-08-04T10:23:55.207Z,6.80
2022-08-04T10:26:31.905Z,7.60
2022-08-04T10:29:05.615Z,7.50
2022-08-04T10:31:42.751Z,7.13
2022-08-04T10:34:21.993Z,7.43
2022-08-04T10:38:01.083Z,6.90
2022-08-04T10:40:37.540Z,8.07
2022-08-04T10:43:41.553Z,7.65
2022-08-04T10:46:30.281Z,7.90
2022-08-04T10:48:57.029Z,7.88
2022-08-04T10:51:58.514Z,7.70
2022-08-04T10:54:45.278Z,7.57
2022-08-04T10:57:18.171Z,7.75
2022-08-04T11:00:03.527Z,8.05
2022-08-04T11:02:54.397Z,8.25
2022-08-04T11:05:45.708Z,7.47
2022-08-04T11:08:35.525Z,8.02
2022-08-04T11:11:24.049Z,7.60
2022-08-04T11:14:12.959Z,8.20
2022-08-04T11:16:53.706Z,8.63
2022-08-04T11:19:44.734Z,7.85
2022-08-04T11:22:24.332Z,8.30
2022-08-04T11:25:06.493Z,8.00
2022-08-04T11:27:59.122Z,8.18
2022-08-04T11:30:35.905Z,8.05
2022-08-04T11:33:38.018Z,7.50
2022-08-04T11:36:36.570Z,8.02
2022-08-04T11:39:15.862Z,8.57
2022-08-04T11:41:56.715Z,9.32
2022-08-04T11:44:43.450Z,8.43
2022-08-04T11:47:16.283Z,9.25
2022-08-04T11:49:57.194Z,8.80
2022-08-04T11:52:27.024Z,9.18
2022-08-04T11:54:55.818Z,8.48
2022-08-04T11:57:35.265Z,9.63
2022-08-04T12:00:09.919Z,9.45
2022-08-04T12:03:14.341Z,9.65
2022-08-04T12:06:10.780Z,9.15
2022-08-04T12:08:51.853Z,9.38
2022-08-04T12:11:35.184Z,9.60
2022-08-04T12:14:20.920Z,9.73
2022-08-04T12:17:08.700Z,9.20
2022-08-04T12:20:04.604Z,10.10
2022-08-04T12:22:40.821Z,9.60
2022-08-04T12:25:09.884Z,9.70
2022-08-04T12:27:49.413Z,9.48
2022-08-04T12:31:02.045Z,9.48
2022-08-04T12:34:03.522Z,9.32
2022-08-04T12:36:24.999Z,10.13
2022-08-04T12:39:19.678Z,9.57
2022-08-04T12:42:21.317Z,10.25
2022-08-04T12:44:54.174Z,9.75
2022-08-04T12:47:29.723Z,9.30
2022-08-04T12:50:03.854Z,9.30
2022-08-04T12:55:30.700Z,9.15
2022-08-04T12:57:58.547Z,9.20
2022-08-04T13:00:38.249Z,9.68
2022-08-04T13:03:12.399Z,9.40
2022-08-04T13:05:43.863Z,9.15
2022-08-04T13:08:12.714Z,9.07
2022-08-04T13:10:44.570Z,8.45
2022-08-04T13:13:20.569Z,8.48
2022-08-04T13:16:05.677Z,8.13
2022-08-04T13:18:42.716Z,8.15
2022-08-04T13:21:50.348Z,8.20
2022-08-04T13:24:22.703Z,7.43
2022-08-04T13:27:10.766Z,8.13
2022-08-04T13:29:59.624Z,7.50
2022-08-04T13:32:32.404Z,8.02
2022-08-04T13:35:02.047Z,8.50
2022-08-04T13:37:36.105Z,8.40
2022-08-04T13:40:10.090Z,8.35
2022-08-04T13:42:40.409Z,8.98
2022-08-04T13:45:09.107Z,9.00
2022-08-04T13:47:39.311Z,8.43
2022-08-04T13:50:12.455Z,8.85
2022-08-04T13:52:42.064Z,8.55
2022-08-04T13:55:37.027Z,8.65
2022-08-04T13:58:10.562Z,9.05
2022-08-04T14:00:54.527Z,8.75
2022-08-04T14:03:32.500Z,9.50
2022-08-04T14:06:22.467Z,9.07
2022-08-04T14:08:59.360Z,10.03
2022-08-04T14:12:08.880Z,9.57
2022-08-04T14:14:31.746Z,8.88
2022-08-04T14:17:16.274Z,9.23
2022-08-04T14:19:46.825Z,10.07
2022-08-04T14:22:26.637Z,9.48
2022-08-04T14:25:05.830Z,9.60
2022-08-04T14:27:52.692Z,9.48
2022-08-04T14:30:33.168Z,9.70
2022-08-04T14:34:03.127Z,9.68
2022-08-04T14:35:58.619Z,11.00
2022-08-04T14:38:44.153Z,10.75
2022-08-04T14:41:11.809Z,10.85
2022-08-04T14:43:54.012Z,11.27
2022-08-04T14:46:22.697Z,10.88
2022-08-04T14:49:10.905Z,10.40
2022-08-04T14:51:44.749Z,11.75
2022-08-04T14:54:18.029Z,11.07
2022-08-04T14:56:58.222Z,11.30
2022-08-04T15:02:00.885Z,11.57
2022-08-04T15:04:31.436Z,11.57
2022-08-04T15:06:59.830Z,11.48
2022-08-04T15:09:26.805Z,12.05
2022-08-04T15:11:53.981Z,12.32
2022-08-04T15:14:37.063Z,12.20
2022-08-04T15:17:11.913Z,12.55
2022-08-04T15:19:56.157Z,11.43
2022-08-04T15:22:23.301Z,11.95
2022-08-04T15:24:54.923Z,12.38
2022-08-04T15:27:27.494Z,11.77
2022-08-04T15:30:01.593Z,12.00
2022-08-04T15:32:54.675Z,12.18
2022-08-04T15:35:30.858Z,11.25
2022-08-04T15:38:07.398Z,11.40
2022-08-04T15:41:03.223Z,11.02
2022-08-04T15:43:57.820Z,11.82
2022-08-04T15:46:47.648Z,10.55
2022-08-04T15:49:25.091Z,10.65
2022-08-04T15:52:11.886Z,10.98
2022-08-04T15:54:39.557Z,10.90
2022-08-04T15:57:10.357Z,11.05
2022-08-04T15:59:55.687Z,10.95
2022-08-04T16:02:48.851Z,11.77
2022-08-04T16:05:18.216Z,11.82
2022-08-04T16:08:04.607Z,10.93
2022-08-04T16:10:31.399Z,10.73
2022-08-04T16:13:14.524Z,11.38
2022-08-04T16:16:03.014Z,12.15
2022-08-04T16:18:30.393Z,11.18
2022-08-04T16:21:02.574Z,11.13
2022-08-04T16:23:56.975Z,11.38
2022-08-04T16:26:37.861Z,10.68
2022-08-04T16:29:32.465Z,10.85
2022-08-04T16:32:05.172Z,10.95
2022-08-04T16:34:47.721Z,11.30
2022-08-04T16:37:19.004Z,11.02
2022-08-04T16:39:50.240Z,11.35
2022-08-04T16:42:30.641Z,10.88
2022-08-04T16:45:01.566Z,11.65
2022-08-04T16:47:49.323Z,11.43
2022-08-04T16:50:24.482Z,11.50
2022-08-04T16:52:53.743Z,10.23
2022-08-04T16:55:23.414Z,10.82
2022-08-04T16:57:52.326Z,11.90
2022-08-04T17:00:30.384Z,10.88
2022-08-04T17:02:57.810Z,11.32
2022-08-04T17:05:38.956Z,10.90
2022-08-04T17:10:55.784Z,10.82
2022-08-04T17:14:03.415Z,11.65
2022-08-04T17:16:22.591Z,11.95
2022-08-04T17:18:54.342Z,11.93
2022-08-04T17:21:28.163Z,14.35
2022-08-04T17:24:16.114Z,13.07
2022-08-04T17:26:54.598Z,12.63
2022-08-04T17:29:42.292Z,12.57
2022-08-04T17:32:15.219Z,13.00
2022-08-04T17:34:42.302Z,12.80
2022-08-04T17:40:10.422Z,12.73
2022-08-04T17:42:39.976Z,12.75
2022-08-04T17:45:51.195Z,12.48
2022-08-04T17:48:09.007Z,12.90
2022-08-04T17:50:36.753Z,13.38
2022-08-04T17:53:11.953Z,12.52
2022-08-04T17:55:49.554Z,13.30
2022-08-04T17:58:22.975Z,12.15
2022-08-04T18:03:52.898Z,12.77
2022-08-04T18:06:25.551Z,13.43
2022-08-04T18:09:22.627Z,13.50
2022-08-04T18:12:01.350Z,12.82
2022-08-04T18:14:38.626Z,12.02
2022-08-04T18:18:19.708Z,12.90
2022-08-04T18:19:55.369Z,12.65
2022-08-04T18:22:28.077Z,12.98
2022-08-04T18:24:56.827Z,14.43
2022-08-04T18:27:26.514Z,13.18
2022-08-04T18:30:32.521Z,13.70
2022-08-04T18:33:24.661Z,14.23
2022-08-04T18:36:33.963Z,13.70
2022-08-04T18:38:24.897Z,12.80
2022-08-04T18:40:54.782Z,14.10
2022-08-04T18:43:28.566Z,13.70
2022-08-04T18:45:59.368Z,14.50
2022-08-04T18:48:36.717Z,14.05
2022-08-04T18:51:23.241Z,14.60
2022-08-04T18:53:54.997Z,13.70
2022-08-04T18:56:29.257Z,13.38
2022-08-04T18:59:00.035Z,13.52
2022-08-04T19:01:30.048Z,13.15
2022-08-04T19:04:33.031Z,13.00
2022-08-04T19:07:29.373Z,12.95
2022-08-04T19:09:52.237Z,13.73
2022-08-04T19:12:26.638Z,13.50
2022-08-04T19:17:49.958Z,12.80
2022-08-04T19:20:26.749Z,13.38
2022-08-04T19:24:10.710Z,13.98
2022-08-04T19:26:01.288Z,12.38
2022-08-04T19:28:34.959Z,13.85
2022-08-04T19:36:33.237Z,14.07
2022-08-04T19:39:04.521Z,13.48
2022-08-04T19:42:06.535Z,13.70
2022-08-04T19:44:25.593Z,13.13
2022-08-04T19:50:04.107Z,13.07
2022-08-04T19:52:14.811Z,13.27
2022-08-04T19:55:10.669Z,13.63
2022-08-04T19:57:46.552Z,13.88
2022-08-04T20:00:18.045Z,14.07
2022-08-04T20:03:00.483Z,13.70
2022-08-04T20:05:52.559Z,13.15
2022-08-04T20:08:15.449Z,14.50
2022-08-04T20:10:46.982Z,14.27
2022-08-04T20:13:22.111Z,15.30
2022-08-04T20:15:57.323Z,13.43
2022-08-04T20:18:36.888Z,13.10
2022-08-04T20:21:19.008Z,12.77
2022-08-04T20:23:50.252Z,12.30
2022-08-04T20:26:17.338Z,12.98
2022-08-04T20:28:45.931Z,12.65
2022-08-04T20:31:18.729Z,13.60
2022-08-04T20:33:49.233Z,13.50
2022-08-04T20:36:21.190Z,13.45
2022-08-04T20:38:52.591Z,12.88
2022-08-04T20:43:50.087Z,13.13
2022-08-04T20:49:06.092Z,12.68
2022-08-04T20:51:33.329Z,13.75
2022-08-04T20:54:01.976Z,12.55
2022-08-04T20:56:30.782Z,12.75
2022-08-04T20:59:00.003Z,12.48
2022-08-04T21:01:29.897Z,14.27
2022-08-04T21:04:27.773Z,13.63
2022-08-04T21:07:07.689Z,13.60
2022-08-04T21:09:37.814Z,12.98
2022-08-04T21:12:27.950Z,12.48
2022-08-04T21:15:01.431Z,12.85
2022-08-04T21:17:59.164Z,12.38
2022-08-04T21:20:28.553Z,13.60
2022-08-04T21:22:59.683Z,13.10
2022-08-04T21:25:28.807Z,12.90
2022-08-04T21:28:04.307Z,12.57
2022-08-04T21:30:36.915Z,13.20
2022-08-04T21:33:18.646Z,12.75
2022-08-04T21:35:46.845Z,12.75
2022-08-04T21:38:17.282Z,12.27
2022-08-04T21:40:55.148Z,13.02
2022-08-04T21:43:23.655Z,13.07
2022-08-04T21:45:55.738Z,12.88
2022-08-04T21:48:23.954Z,13.27
2022-08-04T21:53:22.250Z,12.43
2022-08-04T21:56:05.715Z,12.65
2022-08-04T21:58:36.050Z,13.13
2022-08-04T22:01:13.205Z,13.77
2022-08-04T22:03:52.554Z,13.15
2022-08-04T22:06:28.826Z,14.23
2022-08-04T22:08:57.407Z,13.73
2022-08-04T22:11:43.864Z,14.35
2022-08-04T22:14:16.238Z,14.65
2022-08-04T22:16:45.306Z,14.05
2022-08-04T22:19:13.663Z,14.27
2022-08-04T22:21:45.381Z,14.23
2022-08-04T22:24:14.560Z,14.13
2022-08-04T22:26:41.674Z,14.10
2022-08-04T22:29:14.347Z,13.77
2022-08-04T22:31:56.712Z,14.00
2022-08-04T22:34:25.060Z,14.32
2022-08-04T22:36:53.668Z,14.00
2022-08-04T22:39:23.715Z,14.40
2022-08-04T22:42:03.915Z,14.60
2022-08-04T22:44:33.363Z,14.10
2022-08-04T22:47:01.289Z,14.77
2022-08-04T22:49:31.454Z,14.63
2022-08-04T22:51:59.177Z,14.25
2022-08-04T22:54:28.446Z,14.70
2022-08-04T22:56:55.635Z,14.60
2022-08-04T22:59:24.365Z,14.68
2022-08-04T23:01:59.514Z,14.68
2022-08-04T23:04:33.154Z,14.85
2022-08-04T23:07:01.107Z,14.40
2022-08-04T23:09:50.710Z,14.77
2022-08-04T23:12:27.266Z,15.13
2022-08-04T23:14:58.750Z,14.68
2022-08-04T23:17:27.669Z,14.77
2022-08-04T23:19:58.789Z,14.73
2022-08-04T23:22:42.075Z,15.40
2022-08-04T23:25:15.268Z,14.02
2022-08-04T23:27:51.658Z,14.20
2022-08-04T23:30:29.476Z,14.05
2022-08-04T23:32:57.066Z,13.98
2022-08-04T23:35:23.908Z,14.65
2022-08-04T23:37:57.014Z,14.50
2022-08-04T23:40:34.364Z,15.13
2022-08-04T23:43:17.321Z,13.75
2022-08-04T23:46:03.950Z,14.25
2022-08-04T23:48:36.046Z,14.90
2022-08-04T23:51:13.768Z,15.13
2022-08-04T23:53:52.392Z,15.30
2022-08-04T23:56:28.481Z,14.95
2022-08-04T23:58:56.500Z,14.75
